Terminal Aerodrome Forecast
Issued by NWS Sterling, VA

Home | Current Version | Previous Version | Text Only | Print | Product List | Glossary On
Versions: 1 2 3 4 5 6 7 8 9 10 11 12 13 14 15 16 17 18
000
FTUS41 KLWX 271136
TAFCHO
TAF
KCHO 271136Z 2712/2812 01007KT 4SM RA OVC020
     FM271400 36007KT 5SM RA OVC025
     FM271600 01006KT 5SM -RA OVC025
     FM271800 05005KT P6SM OVC025
     FM272200 VRB03KT P6SM OVC040
     FM281100 32006KT P6SM SCT250=

USA.gov is the U.S. government's official web portal to all federal, state and local government web resources and services.